Time;durP1;ratioP1;P1;durP2;ratioP2;P2;SDS_P1;SDS_P2;PMS_P1;PMS_P2;Temp;Humidity;BMP_temperature;BMP_pressure;BME280_temperature;BME280_humidity;BME280_pressure;Samples;Min_cycle;Max_cycle;Signal;HPM_P1;HPM_P2
2022/09/15 00:01:25;;;;;;;2.35;2.15;;;12.50;99.90;;;;;;4841258;29;20120;-67
2022/09/15 00:03:51;;;;;;;2.30;1.95;;;12.50;99.90;;;;;;4828594;29;20487;-67
2022/09/15 00:06:18;;;;;;;2.53;2.25;;;12.50;99.90;;;;;;4836584;29;20045;-66
2022/09/15 00:08:43;;;;;;;2.60;2.40;;;12.50;99.90;;;;;;4840639;29;20108;-67
2022/09/15 00:11:21;;;;;;;2.30;2.10;;;12.60;99.90;;;;;;4845326;29;20503;-67
2022/09/15 00:13:48;;;;;;;2.53;2.33;;;12.60;99.90;;;;;;4843112;29;20053;-67
2022/09/15 00:16:15;;;;;;;3.47;2.65;;;12.60;99.90;;;;;;4828654;29;20128;-66
2022/09/15 00:18:41;;;;;;;3.03;2.35;;;12.60;99.90;;;;;;4861063;29;20056;-67
2022/09/15 00:21:10;;;;;;;2.30;2.10;;;12.70;99.90;;;;;;4841146;29;20068;-67
2022/09/15 00:23:36;;;;;;;2.58;2.38;;;12.70;99.90;;;;;;4860540;29;20085;-67
2022/09/15 00:26:06;;;;;;;5.38;2.90;;;12.70;99.90;;;;;;4859858;29;20379;-66
2022/09/15 00:28:32;;;;;;;4.10;2.65;;;12.70;99.90;;;;;;4855817;29;20099;-66
2022/09/15 00:30:58;;;;;;;2.40;2.20;;;12.70;99.90;;;;;;4840769;29;20490;-67
2022/09/15 00:33:23;;;;;;;3.90;2.45;;;12.80;99.90;;;;;;4835710;29;20054;-67
2022/09/15 00:35:52;;;;;;;3.20;2.90;;;12.80;99.90;;;;;;4826462;29;20054;-66
2022/09/15 00:38:18;;;;;;;5.50;3.63;;;12.90;99.90;;;;;;4843889;29;20041;-67
2022/09/15 00:40:47;;;;;;;4.43;3.40;;;12.90;99.90;;;;;;4827131;29;20048;-67
2022/09/15 00:43:14;;;;;;;3.65;3.35;;;13.00;99.90;;;;;;4836600;29;20041;-67
2022/09/15 00:45:40;;;;;;;5.55;3.97;;;13.10;99.90;;;;;;4859291;29;20132;-67
2022/09/15 00:48:12;;;;;;;5.32;3.70;;;13.10;99.90;;;;;;4843245;29;20136;-67
2022/09/15 00:50:40;;;;;;;4.45;4.03;;;13.20;99.90;;;;;;4859606;29;20089;-67
2022/09/15 00:53:07;;;;;;;4.88;4.30;;;13.20;99.90;;;;;;4858646;29;20109;-67
2022/09/15 00:55:46;;;;;;;6.25;4.32;;;13.30;99.90;;;;;;4840815;29;20041;-67
2022/09/15 00:58:23;;;;;;;6.93;4.70;;;13.40;99.90;;;;;;4825748;29;20132;-67
2022/09/15 01:00:55;;;;;;;7.78;4.30;;;13.40;99.90;;;;;;4863532;29;20050;-67
2022/09/15 01:03:22;;;;;;;8.15;4.40;;;13.50;99.90;;;;;;4846766;29;20046;-67
2022/09/15 01:05:53;;;;;;;7.07;4.53;;;13.50;99.90;;;;;;4844765;29;20099;-67
2022/09/15 01:08:51;;;;;;;6.57;4.60;;;13.60;99.90;;;;;;4858189;29;20388;-67
2022/09/15 01:11:17;;;;;;;7.80;5.10;;;13.60;99.90;;;;;;4822581;29;20049;-67
2022/09/15 01:13:43;;;;;;;7.88;5.28;;;13.70;99.90;;;;;;4844737;29;20050;-67
2022/09/15 01:16:15;;;;;;;7.43;4.20;;;13.70;99.90;;;;;;4828532;29;20432;-67
2022/09/15 01:19:12;;;;;;;4.95;4.07;;;13.70;99.90;;;;;;4827404;29;20057;-67
2022/09/15 01:21:52;;;;;;;6.55;4.65;;;13.70;99.90;;;;;;4825107;29;20118;-67
2022/09/15 01:24:54;;;;;;;6.75;4.53;;;13.70;99.90;;;;;;4855914;29;20117;-67
2022/09/15 01:27:22;;;;;;;7.38;3.95;;;13.70;99.90;;;;;;4771815;30;20055;-67
2022/09/15 01:29:53;;;;;;;5.55;4.20;;;13.70;99.90;;;;;;4833919;29;20069;-67
2022/09/15 01:35:16;;;;;;;4.60;3.35;;;13.70;99.90;;;;;;4844890;29;20483;-67
2022/09/15 01:37:51;;;;;;;7.22;3.47;;;13.70;99.90;;;;;;4863135;29;20133;-67
2022/09/15 01:40:19;;;;;;;7.43;2.85;;;13.70;99.90;;;;;;4833292;29;20073;-67
2022/09/15 01:42:47;;;;;;;5.82;2.97;;;13.80;99.90;;;;;;4846063;29;20049;-67
2022/09/15 01:45:26;;;;;;;2.85;2.42;;;13.80;99.90;;;;;;4843686;29;20395;-67
2022/09/15 01:47:56;;;;;;;3.72;2.28;;;13.80;99.90;;;;;;4844018;29;20042;-67
2022/09/15 01:50:29;;;;;;;8.30;2.30;;;13.80;99.90;;;;;;4844359;29;20440;-67
2022/09/15 01:53:00;;;;;;;6.57;2.33;;;13.80;99.90;;;;;;4827972;29;20062;-67
2022/09/15 01:55:49;;;;;;;5.05;2.33;;;13.90;99.90;;;;;;4859521;29;20041;-67
2022/09/15 01:58:14;;;;;;;4.82;2.03;;;13.90;99.90;;;;;;4851004;29;20050;-67
2022/09/15 02:00:48;;;;;;;5.50;2.30;;;13.90;99.90;;;;;;4842204;29;20045;-67
2022/09/15 02:03:47;;;;;;;5.28;2.10;;;13.90;99.90;;;;;;4843989;29;20053;-67
2022/09/15 02:06:34;;;;;;;4.40;2.30;;;13.90;99.90;;;;;;4825720;29;20488;-67
2022/09/15 02:09:12;;;;;;;6.63;1.80;;;13.90;99.90;;;;;;4828891;29;20137;-66
2022/09/15 02:11:48;;;;;;;5.28;1.90;;;13.90;99.90;;;;;;4827948;29;20041;-67
2022/09/15 02:14:43;;;;;;;4.20;1.70;;;13.90;99.90;;;;;;4834895;29;20102;-67
2022/09/15 02:17:15;;;;;;;3.08;1.70;;;13.90;99.90;;;;;;4844140;29;20046;-67
2022/09/15 02:19:49;;;;;;;5.20;1.90;;;13.90;99.90;;;;;;4852076;29;20041;-67
2022/09/15 02:22:22;;;;;;;4.28;1.38;;;13.90;99.90;;;;;;4862648;29;20088;-67
2022/09/15 02:25:11;;;;;;;4.45;1.70;;;13.80;99.90;;;;;;4854722;29;20049;-67
2022/09/15 02:27:45;;;;;;;5.13;1.77;;;13.80;99.90;;;;;;4844355;29;20050;-67
2022/09/15 02:30:13;;;;;;;4.90;1.35;;;13.90;99.90;;;;;;4858215;29;20068;-67
2022/09/15 02:32:46;;;;;;;5.00;1.70;;;13.80;99.90;;;;;;4828438;29;20058;-67
2022/09/15 02:35:14;;;;;;;2.80;1.40;;;13.80;99.90;;;;;;4842779;29;20049;-67
2022/09/15 02:37:40;;;;;;;4.30;1.63;;;13.90;99.90;;;;;;4842789;29;20053;-67
2022/09/15 02:40:06;;;;;;;4.07;1.55;;;13.80;99.90;;;;;;4823352;29;20054;-67
2022/09/15 02:42:32;;;;;;;4.05;1.65;;;13.80;99.90;;;;;;4841440;29;20121;-67
2022/09/15 02:44:59;;;;;;;5.20;1.73;;;13.70;99.90;;;;;;4847904;29;20485;-67
2022/09/15 02:47:27;;;;;;;4.80;1.92;;;13.70;99.90;;;;;;4833912;29;20050;-67
2022/09/15 02:49:53;;;;;;;4.80;1.40;;;13.80;99.90;;;;;;4844035;29;20049;-67
2022/09/15 02:52:18;;;;;;;5.53;1.50;;;13.80;99.90;;;;;;4856658;29;20053;-67
2022/09/15 02:54:44;;;;;;;8.45;1.40;;;13.80;99.90;;;;;;4861749;29;20053;-67
2022/09/15 02:57:10;;;;;;;4.45;1.50;;;13.80;99.90;;;;;;4832462;29;20046;-67
2022/09/15 03:02:19;;;;;;;6.25;1.40;;;13.80;99.90;;;;;;4852323;29;20402;-67
2022/09/15 03:04:48;;;;;;;5.50;1.50;;;13.80;99.90;;;;;;4861827;29;20132;-67
2022/09/15 03:07:15;;;;;;;4.15;1.55;;;13.80;99.90;;;;;;4861874;29;20049;-67
2022/09/15 03:09:41;;;;;;;3.70;1.52;;;13.80;99.90;;;;;;4860597;29;20509;-67
2022/09/15 03:12:06;;;;;;;2.97;1.20;;;13.90;99.90;;;;;;4830080;29;20050;-67
2022/09/15 03:14:34;;;;;;;5.70;1.40;;;13.80;99.90;;;;;;4844056;29;20046;-67
2022/09/15 03:17:03;;;;;;;4.63;1.60;;;13.80;99.90;;;;;;4855191;29;20045;-67
2022/09/15 03:19:29;;;;;;;5.40;1.23;;;13.80;99.90;;;;;;4833008;29;20057;-67
2022/09/15 03:21:55;;;;;;;4.82;1.50;;;13.90;99.90;;;;;;4841579;29;20104;-67
2022/09/15 03:24:32;;;;;;;3.78;1.38;;;13.80;99.90;;;;;;4849555;29;20545;-67
2022/09/15 03:26:58;;;;;;;3.90;1.52;;;13.80;99.90;;;;;;4834109;29;20360;-67
2022/09/15 03:29:49;;;;;;;5.28;1.40;;;13.80;99.90;;;;;;4840848;29;20097;-67
2022/09/15 03:32:40;;;;;;;3.28;1.17;;;13.80;99.90;;;;;;4847187;29;20093;-67
2022/09/15 03:35:30;;;;;;;4.15;1.30;;;13.80;99.90;;;;;;4844278;29;20568;-67
2022/09/15 03:37:56;;;;;;;5.32;1.70;;;13.70;99.90;;;;;;4840351;29;20062;-67
2022/09/15 03:40:21;;;;;;;4.40;1.40;;;13.70;99.90;;;;;;4843289;29;20437;-67
2022/09/15 03:42:47;;;;;;;6.40;1.20;;;13.70;99.90;;;;;;4827254;29;20388;-67
2022/09/15 03:45:13;;;;;;;6.30;1.58;;;13.70;99.90;;;;;;4840667;29;20497;-67
2022/09/15 03:47:38;;;;;;;4.65;1.45;;;13.70;99.90;;;;;;4848228;29;20140;-67
2022/09/15 03:50:05;;;;;;;6.40;1.80;;;13.70;99.90;;;;;;4847963;29;20049;-67
2022/09/15 03:52:31;;;;;;;2.55;1.20;;;13.70;99.90;;;;;;4848432;29;20049;-67
2022/09/15 03:54:57;;;;;;;3.30;1.13;;;13.70;99.90;;;;;;4843213;29;20065;-67
2022/09/15 03:57:22;;;;;;;4.88;1.67;;;13.70;99.90;;;;;;4824412;29;20102;-67
2022/09/15 03:59:48;;;;;;;4.47;1.67;;;13.70;99.90;;;;;;4844672;29;20034;-67
2022/09/15 04:02:13;;;;;;;5.32;1.50;;;13.70;99.90;;;;;;4841982;29;20096;-67
2022/09/15 04:04:40;;;;;;;5.28;1.63;;;13.70;99.90;;;;;;4843776;29;20424;-67
2022/09/15 04:07:07;;;;;;;3.53;1.23;;;13.70;99.90;;;;;;4859643;29;20033;-67
2022/09/15 04:09:33;;;;;;;5.50;1.20;;;13.70;99.90;;;;;;4861437;29;20501;-67
2022/09/15 04:11:59;;;;;;;2.83;1.25;;;13.70;99.90;;;;;;4850572;29;20130;-67
2022/09/15 04:14:24;;;;;;;4.25;1.25;;;13.70;99.90;;;;;;4825874;29;20069;-67
2022/09/15 04:16:50;;;;;;;3.50;1.60;;;13.60;99.90;;;;;;4842083;29;20042;-67
2022/09/15 04:19:15;;;;;;;5.82;1.75;;;13.70;99.90;;;;;;4845157;29;20273;-67
2022/09/15 04:21:41;;;;;;;6.13;1.70;;;13.60;99.90;;;;;;4840746;29;20049;-67
2022/09/15 04:24:07;;;;;;;6.45;1.40;;;13.60;99.90;;;;;;4834505;29;20046;-67
2022/09/15 04:26:35;;;;;;;5.20;1.27;;;13.60;99.90;;;;;;4841770;29;20054;-67
2022/09/15 04:29:01;;;;;;;5.25;1.50;;;13.60;99.90;;;;;;4849861;29;20045;-67
2022/09/15 04:31:27;;;;;;;4.85;1.50;;;13.60;99.90;;;;;;4842079;29;20073;-67
2022/09/15 04:33:54;;;;;;;5.72;1.48;;;13.60;99.90;;;;;;4834354;29;20071;-67
2022/09/15 04:36:27;;;;;;;3.75;1.63;;;13.60;99.90;;;;;;4841963;29;20098;-67
2022/09/15 04:38:52;;;;;;;5.13;1.55;;;13.50;99.90;;;;;;4835381;29;20056;-67
2022/09/15 04:41:18;;;;;;;3.67;1.30;;;13.50;99.90;;;;;;4851115;29;20050;-67
2022/09/15 04:43:44;;;;;;;7.05;2.00;;;13.50;99.90;;;;;;4826268;29;20041;-67
2022/09/15 04:46:11;;;;;;;3.83;1.70;;;13.50;99.90;;;;;;4859353;29;20052;-67
2022/09/15 04:48:37;;;;;;;3.88;1.40;;;13.50;99.90;;;;;;4851609;29;20073;-67
2022/09/15 04:51:05;;;;;;;7.32;1.38;;;13.50;99.90;;;;;;4839364;29;20058;-67
2022/09/15 04:53:32;;;;;;;4.43;1.38;;;13.40;99.90;;;;;;4859176;29;20081;-67
2022/09/15 04:56:21;;;;;;;6.07;1.58;;;13.40;99.90;;;;;;4828229;29;20050;-67
2022/09/15 04:58:50;;;;;;;4.45;1.70;;;13.40;99.90;;;;;;4859622;29;20109;-67
2022/09/15 05:01:21;;;;;;;5.15;1.42;;;13.40;99.90;;;;;;4827258;29;20057;-67
2022/09/15 05:03:47;;;;;;;3.03;1.30;;;13.40;99.90;;;;;;4847180;29;20050;-67
2022/09/15 05:06:15;;;;;;;2.33;1.20;;;13.30;99.90;;;;;;4840877;29;20045;-67
2022/09/15 05:08:41;;;;;;;3.75;1.30;;;13.40;99.90;;;;;;4846738;29;20046;-67
2022/09/15 05:11:09;;;;;;;6.00;1.73;;;13.40;99.90;;;;;;4830936;29;20069;-67
2022/09/15 05:13:36;;;;;;;6.32;2.05;;;13.40;99.90;;;;;;4839883;29;20395;-67
2022/09/15 05:16:04;;;;;;;4.45;1.30;;;13.40;99.90;;;;;;4848224;29;20045;-67
2022/09/15 05:18:31;;;;;;;3.03;1.30;;;13.40;99.90;;;;;;4857584;29;20085;-67
2022/09/15 05:20:58;;;;;;;2.53;1.20;;;13.40;99.90;;;;;;4821948;29;20057;-67
2022/09/15 05:23:24;;;;;;;5.18;1.20;;;13.50;99.90;;;;;;4832198;29;20475;-67
2022/09/15 05:25:57;;;;;;;5.70;1.70;;;13.50;99.90;;;;;;4837248;29;20048;-67
2022/09/15 05:28:23;;;;;;;5.57;1.70;;;13.60;99.90;;;;;;4840035;29;20118;-67
2022/09/15 05:30:53;;;;;;;6.82;1.52;;;13.50;99.90;;;;;;4850207;29;20038;-67
2022/09/15 05:33:22;;;;;;;2.08;1.13;;;13.60;99.90;;;;;;4822755;29;20046;-67
2022/09/15 05:35:56;;;;;;;4.05;1.40;;;13.60;99.90;;;;;;4841013;29;20046;-67
2022/09/15 05:38:25;;;;;;;5.63;1.40;;;13.60;99.90;;;;;;4840622;29;20416;-67
2022/09/15 05:40:52;;;;;;;2.95;1.00;;;13.60;99.90;;;;;;4839678;29;20578;-67
2022/09/15 05:43:18;;;;;;;2.63;1.20;;;13.60;99.90;;;;;;4842470;29;20511;-67
2022/09/15 05:45:52;;;;;;;4.40;1.05;;;13.60;99.90;;;;;;4848536;29;20099;-67
2022/09/15 05:48:18;;;;;;;5.80;1.50;;;13.60;99.90;;;;;;4842914;29;20062;-67
2022/09/15 05:50:49;;;;;;;5.18;1.33;;;13.60;99.90;;;;;;4842944;29;20122;-67
2022/09/15 05:53:15;;;;;;;6.68;1.40;;;13.70;99.90;;;;;;4842628;29;20049;-67
2022/09/15 05:55:41;;;;;;;3.88;1.02;;;13.70;99.90;;;;;;4844313;29;20057;-67
2022/09/15 05:58:07;;;;;;;8.40;1.25;;;13.70;99.90;;;;;;4842224;29;20089;-67
2022/09/15 06:00:35;;;;;;;4.25;1.08;;;13.70;99.90;;;;;;4844306;29;20068;-67
2022/09/15 06:03:01;;;;;;;8.85;1.70;;;13.80;99.90;;;;;;4842703;29;20088;-67
2022/09/15 06:05:27;;;;;;;6.00;1.90;;;13.80;99.90;;;;;;4844310;29;20078;-66
2022/09/15 06:07:53;;;;;;;6.97;1.42;;;13.80;99.90;;;;;;4843806;29;20049;-67
2022/09/15 06:10:21;;;;;;;7.15;1.33;;;13.90;99.90;;;;;;4842661;29;20056;-68
2022/09/15 06:12:47;;;;;;;4.43;1.00;;;14.00;99.90;;;;;;4843531;29;20096;-66
2022/09/15 06:15:13;;;;;;;4.22;1.13;;;14.10;99.90;;;;;;4858460;29;20061;-66
2022/09/15 06:17:39;;;;;;;2.55;1.10;;;14.20;99.90;;;;;;4843628;29;20144;-68
2022/09/15 06:20:06;;;;;;;8.20;2.33;;;14.40;99.90;;;;;;4828166;29;20145;-66
2022/09/15 06:22:31;;;;;;;4.90;1.40;;;14.60;99.90;;;;;;4844276;29;20454;-69
2022/09/15 06:24:58;;;;;;;4.03;1.00;;;14.70;99.90;;;;;;4838647;29;20089;-67
2022/09/15 06:27:23;;;;;;;5.35;1.67;;;14.90;99.90;;;;;;4846180;29;20075;-67
2022/09/15 06:29:49;;;;;;;7.28;1.27;;;15.10;99.90;;;;;;4844650;29;20395;-67
2022/09/15 06:32:15;;;;;;;5.80;1.33;;;15.30;99.90;;;;;;4827414;29;20491;-68
2022/09/15 06:34:40;;;;;;;6.18;1.42;;;15.50;99.90;;;;;;4827523;29;20332;-67
2022/09/15 06:37:06;;;;;;;4.43;1.35;;;15.60;99.90;;;;;;4812034;29;20053;-68
2022/09/15 06:39:32;;;;;;;7.07;1.30;;;15.60;99.90;;;;;;4839703;29;20478;-68
2022/09/15 06:41:58;;;;;;;4.03;1.33;;;15.70;99.90;;;;;;4826196;29;20042;-68
2022/09/15 06:44:23;;;;;;;3.22;1.40;;;15.70;99.90;;;;;;4844098;29;20054;-67
2022/09/15 06:46:49;;;;;;;3.67;1.15;;;15.80;99.90;;;;;;4844047;29;20050;-67
2022/09/15 06:49:15;;;;;;;3.65;1.00;;;15.70;99.90;;;;;;4825975;29;20479;-67
2022/09/15 06:51:40;;;;;;;3.90;1.15;;;15.70;99.90;;;;;;4811989;29;20050;-67
2022/09/15 06:54:06;;;;;;;3.38;1.33;;;15.70;99.90;;;;;;4843949;29;20042;-67
2022/09/15 06:56:32;;;;;;;4.20;1.15;;;15.70;99.90;;;;;;4826077;29;20085;-67
2022/09/15 06:58:58;;;;;;;5.43;1.05;;;15.70;99.90;;;;;;4847367;29;20038;-67
2022/09/15 07:01:27;;;;;;;3.80;1.17;;;15.80;99.90;;;;;;4828603;29;20365;-67
2022/09/15 07:03:54;;;;;;;6.00;1.40;;;15.80;99.90;;;;;;4842263;29;20380;-67
2022/09/15 07:06:20;;;;;;;7.38;1.10;;;15.80;99.90;;;;;;4825996;29;20049;-67
2022/09/15 07:08:46;;;;;;;4.43;1.40;;;15.80;99.90;;;;;;4843243;29;20053;-67
2022/09/15 07:11:13;;;;;;;6.80;1.55;;;15.90;99.90;;;;;;4827571;29;20129;-67
2022/09/15 07:13:39;;;;;;;5.18;1.00;;;15.90;99.90;;;;;;4842344;29;20551;-67
2022/09/15 07:16:10;;;;;;;4.53;1.10;;;15.90;99.90;;;;;;4827273;29;20444;-67
2022/09/15 07:18:35;;;;;;;11.32;1.50;;;15.90;99.90;;;;;;4841571;29;20390;-67
2022/09/15 07:21:05;;;;;;;5.43;1.33;;;15.90;99.90;;;;;;4841530;29;20046;-67
2022/09/15 07:23:32;;;;;;;4.25;1.33;;;15.90;99.90;;;;;;4826350;29;20373;-67
2022/09/15 07:26:17;;;;;;;4.95;1.40;;;15.90;99.90;;;;;;4843110;29;20137;-67
2022/09/15 07:28:44;;;;;;;8.68;1.10;;;15.90;99.90;;;;;;4842099;29;20062;-67
2022/09/15 07:31:13;;;;;;;7.55;1.00;;;15.90;99.90;;;;;;4841957;29;20125;-67
2022/09/15 07:33:39;;;;;;;5.00;1.10;;;15.90;99.90;;;;;;4842097;29;20128;-67
2022/09/15 07:36:06;;;;;;;2.65;1.08;;;16.00;99.90;;;;;;4825901;29;20145;-67
2022/09/15 07:38:33;;;;;;;3.10;1.30;;;15.90;99.90;;;;;;4842887;29;20159;-67
2022/09/15 07:41:07;;;;;;;4.55;1.27;;;15.90;99.90;;;;;;4843113;29;20444;-67
2022/09/15 07:43:33;;;;;;;4.65;1.17;;;16.00;99.90;;;;;;4843039;29;20054;-66
2022/09/15 07:46:00;;;;;;;5.32;1.25;;;16.00;99.90;;;;;;4841853;29;20110;-67
2022/09/15 07:48:25;;;;;;;5.03;1.13;;;16.10;99.90;;;;;;4842886;29;20137;-68
2022/09/15 07:50:51;;;;;;;5.15;1.10;;;16.30;99.90;;;;;;4842502;29;20108;-67
2022/09/15 07:53:16;;;;;;;5.18;1.08;;;16.50;99.90;;;;;;4842695;29;20060;-67
2022/09/15 07:55:42;;;;;;;2.95;0.93;;;16.60;99.90;;;;;;4841712;29;20050;-67
2022/09/15 07:58:08;;;;;;;4.40;0.90;;;16.60;99.90;;;;;;4841679;29;20057;-67
2022/09/15 08:00:33;;;;;;;5.43;1.15;;;16.60;99.90;;;;;;4841598;29;20133;-67
2022/09/15 08:02:59;;;;;;;3.60;1.00;;;16.70;99.90;;;;;;4841531;29;20142;-67
2022/09/15 08:05:27;;;;;;;4.13;1.08;;;16.60;99.90;;;;;;4825483;29;20046;-67
2022/09/15 08:07:56;;;;;;;4.45;0.80;;;16.60;99.90;;;;;;4840315;29;20468;-67
2022/09/15 08:10:25;;;;;;;2.30;0.98;;;16.70;99.90;;;;;;4828217;29;20337;-67
2022/09/15 08:12:51;;;;;;;6.30;1.00;;;16.70;99.90;;;;;;4841044;29;20042;-67
2022/09/15 08:15:17;;;;;;;5.00;1.00;;;16.80;99.90;;;;;;4837596;29;20483;-67
2022/09/15 08:17:43;;;;;;;3.10;0.77;;;17.00;99.90;;;;;;4861221;29;20049;-67
2022/09/15 08:20:10;;;;;;;7.88;1.10;;;16.90;99.90;;;;;;4829348;29;20094;-67
2022/09/15 08:22:35;;;;;;;4.25;1.10;;;17.10;99.90;;;;;;4840608;29;20059;-67
2022/09/15 08:25:01;;;;;;;3.63;1.10;;;17.20;99.90;;;;;;4824887;29;20049;-67
2022/09/15 08:27:27;;;;;;;5.03;1.05;;;17.30;99.90;;;;;;4820306;29;20110;-66
2022/09/15 08:29:52;;;;;;;5.82;1.20;;;17.40;99.90;;;;;;4844571;29;20129;-67
2022/09/15 08:32:18;;;;;;;3.75;0.90;;;17.50;99.90;;;;;;4824369;29;20080;-67
2022/09/15 08:34:44;;;;;;;4.72;1.00;;;17.50;99.90;;;;;;4825978;29;20540;-67
2022/09/15 08:37:10;;;;;;;2.85;0.90;;;17.60;99.90;;;;;;4825828;29;20141;-67
2022/09/15 08:39:35;;;;;;;4.63;0.98;;;17.50;99.90;;;;;;4825875;29;20491;-67
2022/09/15 08:42:02;;;;;;;5.35;0.82;;;17.50;99.90;;;;;;4825101;29;20125;-67
2022/09/15 08:44:35;;;;;;;3.50;1.05;;;17.40;99.90;;;;;;4831092;29;20045;-67
2022/09/15 08:47:28;;;;;;;4.63;1.10;;;17.30;99.90;;;;;;4842122;29;20065;-67
2022/09/15 08:50:13;;;;;;;3.40;1.00;;;17.20;99.90;;;;;;4841730;29;20399;-67
2022/09/15 08:52:49;;;;;;;3.08;1.10;;;17.00;99.90;;;;;;4839811;29;20065;-67
2022/09/15 08:55:37;;;;;;;5.55;1.08;;;16.90;99.90;;;;;;4842183;29;20057;-67
2022/09/15 08:58:04;;;;;;;3.55;0.77;;;16.80;99.90;;;;;;4840590;29;20087;-67
2022/09/15 09:00:31;;;;;;;3.80;0.90;;;16.80;99.90;;;;;;4840699;29;20087;-67
2022/09/15 09:03:13;;;;;;;4.15;0.80;;;16.90;99.90;;;;;;4825414;29;20054;-67
2022/09/15 09:05:54;;;;;;;2.08;0.88;;;17.00;99.90;;;;;;4841593;29;20058;-67
2022/09/15 09:08:37;;;;;;;2.30;0.82;;;17.20;99.90;;;;;;4810101;29;20159;-67
2022/09/15 09:11:30;;;;;;;4.55;0.70;;;17.30;99.90;;;;;;4840127;29;20137;-67
2022/09/15 09:14:19;;;;;;;2.13;0.88;;;17.40;99.90;;;;;;4841219;29;20062;-67
2022/09/15 09:16:57;;;;;;;5.93;1.15;;;17.50;99.90;;;;;;4841110;29;20046;-67
2022/09/15 09:19:37;;;;;;;4.32;0.70;;;17.70;99.90;;;;;;4844042;29;20093;-67
2022/09/15 09:22:09;;;;;;;3.65;0.90;;;18.00;99.90;;;;;;4843957;29;20053;-67
2022/09/15 09:24:41;;;;;;;4.97;1.08;;;18.10;99.90;;;;;;4843871;29;20154;-68
2022/09/15 09:27:18;;;;;;;5.25;1.00;;;18.30;99.90;;;;;;4855985;29;20088;-67
2022/09/15 09:29:48;;;;;;;6.25;1.20;;;18.30;99.90;;;;;;4810493;29;20058;-67
2022/09/15 09:32:23;;;;;;;2.65;0.82;;;18.50;99.90;;;;;;4810693;29;20090;-67
2022/09/15 09:35:07;;;;;;;6.57;1.33;;;18.70;99.90;;;;;;4826917;29;20042;-67
2022/09/15 09:37:33;;;;;;;2.05;1.00;;;18.80;99.90;;;;;;4810373;29;20437;-67
2022/09/15 09:39:59;;;;;;;3.15;0.65;;;18.60;99.90;;;;;;4810709;29;20079;-67
2022/09/15 09:42:30;;;;;;;7.05;1.00;;;18.60;99.90;;;;;;4822326;29;20054;-67
2022/09/15 09:44:56;;;;;;;4.32;1.23;;;18.50;99.90;;;;;;4843907;29;20085;-67
2022/09/15 09:47:28;;;;;;;3.38;0.80;;;18.50;99.90;;;;;;4828234;29;20085;-67
2022/09/15 09:49:54;;;;;;;5.05;1.02;;;18.40;99.90;;;;;;4844757;29;20058;-67
2022/09/15 09:52:33;;;;;;;2.17;0.80;;;18.40;99.90;;;;;;4843610;29;20117;-67
2022/09/15 09:55:23;;;;;;;4.95;0.98;;;18.30;99.90;;;;;;4845413;29;20052;-67
2022/09/15 09:57:49;;;;;;;4.60;0.98;;;18.20;99.90;;;;;;4834765;29;20514;-67
2022/09/15 10:00:32;;;;;;;2.95;0.80;;;18.20;99.90;;;;;;4828674;29;20057;-65
2022/09/15 10:03:14;;;;;;;3.45;0.80;;;18.10;99.90;;;;;;4828605;29;20081;-67
2022/09/15 10:05:40;;;;;;;5.22;1.02;;;18.00;99.90;;;;;;4827170;29;20052;-66
2022/09/15 10:08:11;;;;;;;3.15;0.88;;;18.00;99.90;;;;;;4856143;29;20093;-67
2022/09/15 10:10:37;;;;;;;2.45;0.60;;;18.10;99.90;;;;;;4844016;29;20062;-67
2022/09/15 10:13:02;;;;;;;4.40;0.98;;;18.10;99.90;;;;;;4842546;29;20046;-67
2022/09/15 10:15:31;;;;;;;3.00;0.73;;;18.20;99.90;;;;;;4846084;29;20049;-67
2022/09/15 10:17:57;;;;;;;2.20;0.95;;;18.20;99.90;;;;;;4843254;29;20482;-68
2022/09/15 10:20:36;;;;;;;2.80;0.60;;;18.10;99.90;;;;;;4826900;29;20129;-68
2022/09/15 10:23:20;;;;;;;4.20;0.85;;;18.20;96.20;;;;;;4818425;29;20050;-68
2022/09/15 10:25:46;;;;;;;1.83;0.50;;;18.30;99.90;;;;;;4825002;29;20062;-67
2022/09/15 10:28:15;;;;;;;4.07;0.80;;;18.20;99.70;;;;;;4827431;29;20056;-69
2022/09/15 10:30:59;;;;;;;1.65;0.60;;;18.20;99.80;;;;;;4826203;29;20054;-68
2022/09/15 10:33:33;;;;;;;5.85;0.90;;;18.10;98.70;;;;;;4843219;29;20056;-69
2022/09/15 10:36:05;;;;;;;5.07;0.88;;;18.20;99.90;;;;;;4841964;29;20495;-68
2022/09/15 10:38:45;;;;;;;1.95;0.73;;;18.40;99.90;;;;;;4826893;29;20155;-68
2022/09/15 10:41:18;;;;;;;3.50;0.80;;;18.70;96.50;;;;;;4839405;29;20054;-69
2022/09/15 10:44:03;;;;;;;2.83;0.75;;;18.90;95.10;;;;;;4841221;29;20101;-69
2022/09/15 10:46:49;;;;;;;3.80;0.60;;;18.90;97.30;;;;;;4824339;29;20061;-69
2022/09/15 10:49:32;;;;;;;1.58;0.57;;;18.80;94.40;;;;;;4826532;29;20046;-68
2022/09/15 10:52:24;;;;;;;3.03;0.60;;;18.80;97.00;;;;;;4839367;29;20054;-69
2022/09/15 10:55:14;;;;;;;3.28;0.68;;;18.60;96.30;;;;;;4840122;29;20057;-68
2022/09/15 10:57:55;;;;;;;4.03;1.00;;;18.50;96.20;;;;;;4826548;29;20508;-68
2022/09/15 11:00:23;;;;;;;3.88;1.00;;;18.20;99.90;;;;;;4839989;29;20121;-68
2022/09/15 11:02:54;;;;;;;2.17;0.88;;;18.00;99.90;;;;;;4842950;29;20132;-68
2022/09/15 11:05:32;;;;;;;3.17;0.98;;;17.90;99.90;;;;;;4842840;29;20061;-68
2022/09/15 11:08:24;;;;;;;2.65;0.80;;;17.80;99.90;;;;;;4840002;29;20153;-68
2022/09/15 11:11:06;;;;;;;5.07;1.20;;;17.50;99.90;;;;;;4820366;29;20057;-68
2022/09/15 11:13:41;;;;;;;3.67;0.93;;;17.30;99.90;;;;;;4830681;29;20069;-68
2022/09/15 11:16:12;;;;;;;3.55;1.00;;;17.20;99.90;;;;;;4827284;29;20062;-69
2022/09/15 11:19:09;;;;;;;3.33;0.95;;;17.20;99.90;;;;;;4819577;29;20490;-68
2022/09/15 11:21:41;;;;;;;6.18;1.13;;;17.20;99.90;;;;;;4826855;29;20083;-68
2022/09/15 11:24:39;;;;;;;3.35;0.80;;;17.30;99.90;;;;;;4842776;29;20049;-68
2022/09/15 11:27:54;;;;;;;5.07;1.00;;;17.40;99.90;;;;;;4826846;29;20050;-68
2022/09/15 11:30:25;;;;;;;4.32;1.05;;;17.40;99.90;;;;;;4820444;29;20079;-68
2022/09/15 11:32:58;;;;;;;2.80;1.10;;;17.30;99.90;;;;;;4841794;29;20073;-68
2022/09/15 11:35:33;;;;;;;5.05;1.20;;;17.30;99.90;;;;;;4825147;29;20057;-69
2022/09/15 11:38:19;;;;;;;5.03;1.00;;;17.20;99.90;;;;;;4840932;29;20052;-70
2022/09/15 11:41:06;;;;;;;5.32;1.20;;;17.00;99.90;;;;;;4832014;29;20061;-68
2022/09/15 11:43:44;;;;;;;5.30;1.30;;;16.90;99.90;;;;;;4841405;29;20054;-68
2022/09/15 11:46:18;;;;;;;5.00;1.33;;;16.70;99.90;;;;;;4837178;29;20080;-69
2022/09/15 11:49:10;;;;;;;2.90;0.88;;;16.70;99.90;;;;;;4845424;29;20045;-68
2022/09/15 11:51:41;;;;;;;3.35;1.02;;;16.70;99.90;;;;;;4861161;29;20038;-68
2022/09/15 11:54:21;;;;;;;7.22;1.20;;;16.80;99.90;;;;;;4844857;29;20098;-68
2022/09/15 11:56:48;;;;;;;4.72;1.10;;;16.90;99.90;;;;;;4829284;29;20061;-68
2022/09/15 11:59:18;;;;;;;4.18;1.20;;;17.00;99.90;;;;;;4851960;29;20077;-68
2022/09/15 12:01:58;;;;;;;5.30;1.15;;;17.20;99.90;;;;;;4843008;29;20053;-68
2022/09/15 12:04:31;;;;;;;3.42;1.25;;;17.30;99.90;;;;;;4841131;29;20054;-68
2022/09/15 12:07:07;;;;;;;3.17;1.05;;;17.50;99.90;;;;;;4842146;29;20145;-68
2022/09/15 12:09:32;;;;;;;2.25;0.75;;;17.50;99.90;;;;;;4842669;29;20061;-68
2022/09/15 12:12:07;;;;;;;1.98;0.65;;;17.80;99.90;;;;;;4842427;29;20048;-68
2022/09/15 12:14:45;;;;;;;5.30;1.10;;;18.00;99.90;;;;;;4857616;29;20054;-68
2022/09/15 12:17:39;;;;;;;2.90;1.02;;;18.10;99.90;;;;;;4844485;29;20057;-68
2022/09/15 12:20:26;;;;;;;4.93;1.00;;;18.40;99.90;;;;;;4854948;29;20053;-69
2022/09/15 12:23:15;;;;;;;2.00;0.70;;;18.40;99.90;;;;;;4840846;29;20050;-68
2022/09/15 12:26:22;;;;;;;4.25;0.70;;;18.30;99.90;;;;;;4840865;29;20064;-68
2022/09/15 12:28:56;;;;;;;2.10;0.80;;;18.10;99.90;;;;;;4773323;29;20107;-68
2022/09/15 12:31:22;;;;;;;4.10;0.60;;;18.00;99.90;;;;;;4820557;29;20495;-68
2022/09/15 12:34:26;;;;;;;1.38;0.70;;;17.90;99.90;;;;;;4841160;29;20057;-69
2022/09/15 12:36:53;;;;;;;2.53;1.00;;;17.90;99.90;;;;;;4840950;29;20046;-69
2022/09/15 12:39:22;;;;;;;2.83;0.80;;;18.00;99.90;;;;;;4843159;29;20053;-69
2022/09/15 12:42:17;;;;;;;2.25;0.80;;;18.10;99.90;;;;;;4841681;29;20042;-68
2022/09/15 12:45:00;;;;;;;2.97;0.70;;;18.30;99.90;;;;;;4834461;29;20057;-68
2022/09/15 12:47:33;;;;;;;2.67;0.88;;;18.40;99.90;;;;;;4826205;29;20133;-68
2022/09/15 12:50:15;;;;;;;2.78;0.60;;;18.50;99.90;;;;;;4859736;29;20449;-68
2022/09/15 12:52:48;;;;;;;0.98;0.50;;;18.70;99.90;;;;;;4829811;29;20053;-69
2022/09/15 12:55:32;;;;;;;2.00;0.50;;;18.80;99.90;;;;;;4825061;29;20065;-69
2022/09/15 12:58:05;;;;;;;2.13;0.50;;;18.80;99.90;;;;;;4840858;29;20561;-68
2022/09/15 13:00:37;;;;;;;;;;;18.80;99.90;;;;;;4842479;29;20144;-68
2022/09/15 13:03:06;;;;;;;2.42;0.60;;;18.60;99.30;;;;;;4842212;29;19920;-68
2022/09/15 13:05:41;;;;;;;2.97;0.50;;;18.60;99.90;;;;;;4842230;29;20110;-69
2022/09/15 13:08:34;;;;;;;1.73;0.50;;;18.50;99.80;;;;;;4840129;29;20058;-68
2022/09/15 13:11:28;;;;;;;2.47;0.60;;;18.40;96.10;;;;;;4842245;29;20054;-68
2022/09/15 13:14:05;;;;;;;1.27;0.47;;;18.30;95.90;;;;;;4840647;29;20050;-68
2022/09/15 13:16:47;;;;;;;1.73;0.65;;;18.40;95.20;;;;;;4839367;29;20062;-68
2022/09/15 13:19:29;;;;;;;3.85;0.57;;;18.50;95.10;;;;;;4840436;29;20503;-68